sensor_id;sensor_type;location;lat;lon;timestamp;pressure;altitude;pressure_sealevel;temperature;humidity
77124;BME280;66079;47.646;19.130;2023-04-03T00:01:05;100273.56;;;8.25;57.16
77124;BME280;66079;47.646;19.130;2023-04-03T00:04:07;100275.44;;;8.31;57.03
77124;BME280;66079;47.646;19.130;2023-04-03T00:07:10;100278.59;;;8.33;57.17
77124;BME280;66079;47.646;19.130;2023-04-03T00:10:14;100277.25;;;8.37;57.29
77124;BME280;66079;47.646;19.130;2023-04-03T00:13:18;100279.16;;;8.56;57.18
77124;BME280;66079;47.646;19.130;2023-04-03T00:16:20;100260.81;;;8.23;56.15
77124;BME280;66079;47.646;19.130;2023-04-03T00:19:23;100271.84;;;8.10;57.29
77124;BME280;66079;47.646;19.130;2023-04-03T00:22:25;100265.88;;;8.10;57.00
77124;BME280;66079;47.646;19.130;2023-04-03T00:25:30;100275.47;;;8.16;56.69
77124;BME280;66079;47.646;19.130;2023-04-03T00:28:33;100272.81;;;8.09;56.46
77124;BME280;66079;47.646;19.130;2023-04-03T00:31:36;100281.34;;;8.03;58.17
77124;BME280;66079;47.646;19.130;2023-04-03T00:34:39;100288.94;;;8.05;57.17
77124;BME280;66079;47.646;19.130;2023-04-03T00:37:42;100290.47;;;8.21;57.04
77124;BME280;66079;47.646;19.130;2023-04-03T00:40:47;100289.88;;;7.97;56.92
77124;BME280;66079;47.646;19.130;2023-04-03T00:43:50;100300.72;;;7.86;57.32
77124;BME280;66079;47.646;19.130;2023-04-03T00:46:53;100297.59;;;7.70;57.96
77124;BME280;66079;47.646;19.130;2023-04-03T00:49:57;100301.56;;;7.72;57.28
77124;BME280;66079;47.646;19.130;2023-04-03T00:53:00;100301.00;;;7.56;57.95
77124;BME280;66079;47.646;19.130;2023-04-03T00:56:06;100290.97;;;7.46;57.91
77124;BME280;66079;47.646;19.130;2023-04-03T00:59:14;100306.63;;;7.59;58.87
77124;BME280;66079;47.646;19.130;2023-04-03T01:02:17;100312.78;;;7.58;58.02
77124;BME280;66079;47.646;19.130;2023-04-03T01:05:21;100298.59;;;7.54;57.18
77124;BME280;66079;47.646;19.130;2023-04-03T01:08:24;100306.97;;;7.56;58.15
77124;BME280;66079;47.646;19.130;2023-04-03T01:11:27;100313.81;;;7.64;57.11
77124;BME280;66079;47.646;19.130;2023-04-03T01:14:29;100299.59;;;7.53;57.34
77124;BME280;66079;47.646;19.130;2023-04-03T01:17:43;100307.34;;;7.53;56.58
77124;BME280;66079;47.646;19.130;2023-04-03T01:24:38;100302.56;;;7.50;56.59
77124;BME280;66079;47.646;19.130;2023-04-03T01:27:45;100310.13;;;7.52;56.18
77124;BME280;66079;47.646;19.130;2023-04-03T01:31:12;100316.88;;;7.53;56.31
77124;BME280;66079;47.646;19.130;2023-04-03T01:34:19;100317.19;;;7.43;56.67
77124;BME280;66079;47.646;19.130;2023-04-03T01:37:22;100316.06;;;7.52;56.90
77124;BME280;66079;47.646;19.130;2023-04-03T01:40:24;100316.97;;;7.59;56.13
77124;BME280;66079;47.646;19.130;2023-04-03T01:43:27;100305.63;;;7.60;56.33
77124;BME280;66079;47.646;19.130;2023-04-03T01:46:30;100320.25;;;7.68;55.37
77124;BME280;66079;47.646;19.130;2023-04-03T01:49:33;100326.88;;;7.77;56.57
77124;BME280;66079;47.646;19.130;2023-04-03T01:52:35;100318.34;;;7.76;55.80
77124;BME280;66079;47.646;19.130;2023-04-03T01:55:38;100312.78;;;7.79;55.27
77124;BME280;66079;47.646;19.130;2023-04-03T01:58:41;100319.06;;;7.91;56.16
77124;BME280;66079;47.646;19.130;2023-04-03T02:01:43;100319.69;;;7.93;54.80
77124;BME280;66079;47.646;19.130;2023-04-03T02:04:48;100316.97;;;7.80;55.31
77124;BME280;66079;47.646;19.130;2023-04-03T02:07:50;100316.00;;;7.81;54.99
77124;BME280;66079;47.646;19.130;2023-04-03T02:10:53;100330.78;;;7.87;55.43
77124;BME280;66079;47.646;19.130;2023-04-03T02:13:55;100332.56;;;7.87;55.19
77124;BME280;66079;47.646;19.130;2023-04-03T02:17:00;100325.34;;;7.82;55.82
77124;BME280;66079;47.646;19.130;2023-04-03T02:20:04;100338.66;;;7.79;55.58
77124;BME280;66079;47.646;19.130;2023-04-03T02:23:08;100315.03;;;7.47;55.20
77124;BME280;66079;47.646;19.130;2023-04-03T02:26:13;100318.97;;;7.43;55.73
77124;BME280;66079;47.646;19.130;2023-04-03T02:29:16;100321.09;;;7.39;55.98
77124;BME280;66079;47.646;19.130;2023-04-03T02:32:19;100328.34;;;7.44;56.07
77124;BME280;66079;47.646;19.130;2023-04-03T02:35:22;100329.84;;;7.38;55.77
77124;BME280;66079;47.646;19.130;2023-04-03T02:38:25;100327.94;;;7.26;56.90
77124;BME280;66079;47.646;19.130;2023-04-03T02:41:29;100339.75;;;7.35;56.27
77124;BME280;66079;47.646;19.130;2023-04-03T02:44:39;100343.25;;;7.27;57.47
77124;BME280;66079;47.646;19.130;2023-04-03T02:47:44;100334.06;;;7.25;56.82
77124;BME280;66079;47.646;19.130;2023-04-03T02:50:46;100332.56;;;7.01;57.17
77124;BME280;66079;47.646;19.130;2023-04-03T02:53:50;100326.06;;;7.05;57.53
77124;BME280;66079;47.646;19.130;2023-04-03T02:56:57;100335.16;;;7.16;56.88
77124;BME280;66079;47.646;19.130;2023-04-03T03:00:00;100335.44;;;7.21;57.76
77124;BME280;66079;47.646;19.130;2023-04-03T03:03:03;100317.69;;;6.89;56.23
77124;BME280;66079;47.646;19.130;2023-04-03T03:06:12;100331.50;;;6.96;56.76
77124;BME280;66079;47.646;19.130;2023-04-03T03:09:15;100331.69;;;6.94;56.25
77124;BME280;66079;47.646;19.130;2023-04-03T03:12:17;100340.75;;;6.90;56.58
77124;BME280;66079;47.646;19.130;2023-04-03T03:15:24;100334.50;;;6.70;56.81
77124;BME280;66079;47.646;19.130;2023-04-03T03:18:27;100325.00;;;6.70;57.56
77124;BME280;66079;47.646;19.130;2023-04-03T03:21:30;100341.84;;;6.66;57.80
77124;BME280;66079;47.646;19.130;2023-04-03T03:24:33;100340.66;;;6.54;57.47
77124;BME280;66079;47.646;19.130;2023-04-03T03:27:35;100331.81;;;6.49;57.11
77124;BME280;66079;47.646;19.130;2023-04-03T03:30:38;100350.81;;;6.56;57.92
77124;BME280;66079;47.646;19.130;2023-04-03T03:33:42;100331.19;;;6.47;57.78
77124;BME280;66079;47.646;19.130;2023-04-03T03:36:44;100356.31;;;6.53;57.95
77124;BME280;66079;47.646;19.130;2023-04-03T03:39:47;100343.91;;;6.34;57.35
77124;BME280;66079;47.646;19.130;2023-04-03T03:42:50;100339.63;;;6.26;57.52
77124;BME280;66079;47.646;19.130;2023-04-03T03:45:53;100352.97;;;6.30;57.60
77124;BME280;66079;47.646;19.130;2023-04-03T03:48:58;100339.94;;;6.09;58.28
77124;BME280;66079;47.646;19.130;2023-04-03T03:52:01;100346.69;;;6.10;58.37
77124;BME280;66079;47.646;19.130;2023-04-03T03:55:11;100338.00;;;6.03;58.51
77124;BME280;66079;47.646;19.130;2023-04-03T03:58:15;100336.03;;;5.90;59.06
77124;BME280;66079;47.646;19.130;2023-04-03T04:01:17;100355.19;;;5.96;59.04
77124;BME280;66079;47.646;19.130;2023-04-03T04:04:23;100344.63;;;5.83;59.19
77124;BME280;66079;47.646;19.130;2023-04-03T04:07:25;100348.75;;;5.92;59.02
77124;BME280;66079;47.646;19.130;2023-04-03T04:10:31;100357.03;;;5.79;59.87
77124;BME280;66079;47.646;19.130;2023-04-03T04:13:34;100344.66;;;5.75;59.76
77124;BME280;66079;47.646;19.130;2023-04-03T04:16:36;100351.09;;;5.71;59.71
77124;BME280;66079;47.646;19.130;2023-04-03T04:19:44;100353.97;;;5.53;60.05
77124;BME280;66079;47.646;19.130;2023-04-03T04:22:46;100357.00;;;5.48;60.62
77124;BME280;66079;47.646;19.130;2023-04-03T04:25:50;100363.03;;;5.41;60.73
77124;BME280;66079;47.646;19.130;2023-04-03T04:28:54;100362.03;;;5.42;60.41
77124;BME280;66079;47.646;19.130;2023-04-03T04:31:56;100353.44;;;5.19;60.91
77124;BME280;66079;47.646;19.130;2023-04-03T04:34:59;100365.88;;;5.15;61.17
77124;BME280;66079;47.646;19.130;2023-04-03T04:38:04;100369.06;;;5.17;61.13
77124;BME280;66079;47.646;19.130;2023-04-03T04:41:08;100360.91;;;5.06;61.03
77124;BME280;66079;47.646;19.130;2023-04-03T04:44:11;100375.03;;;5.18;61.25
77124;BME280;66079;47.646;19.130;2023-04-03T04:47:14;100380.88;;;5.12;61.35
77124;BME280;66079;47.646;19.130;2023-04-03T04:50:18;100380.03;;;5.19;61.54
77124;BME280;66079;47.646;19.130;2023-04-03T04:53:21;100377.66;;;5.10;61.21
77124;BME280;66079;47.646;19.130;2023-04-03T04:56:24;100379.22;;;5.27;61.06
77124;BME280;66079;47.646;19.130;2023-04-03T04:59:36;100373.84;;;5.36;60.70
77124;BME280;66079;47.646;19.130;2023-04-03T05:02:41;100369.91;;;5.48;60.48
77124;BME280;66079;47.646;19.130;2023-04-03T05:05:44;100372.03;;;5.45;60.24
77124;BME280;66079;47.646;19.130;2023-04-03T05:08:48;100383.66;;;5.41;61.16
77124;BME280;66079;47.646;19.130;2023-04-03T05:11:52;100369.03;;;5.33;60.36
77124;BME280;66079;47.646;19.130;2023-04-03T05:14:58;100392.25;;;5.64;60.01
77124;BME280;66079;47.646;19.130;2023-04-03T05:18:03;100394.88;;;5.56;60.08
77124;BME280;66079;47.646;19.130;2023-04-03T05:21:07;100405.44;;;5.69;59.71
77124;BME280;66079;47.646;19.130;2023-04-03T05:24:10;100412.66;;;5.74;60.12
77124;BME280;66079;47.646;19.130;2023-04-03T05:27:16;100411.41;;;5.70;59.61
77124;BME280;66079;47.646;19.130;2023-04-03T05:30:24;100399.56;;;5.53;59.74
77124;BME280;66079;47.646;19.130;2023-04-03T05:33:28;100398.09;;;5.58;60.13
77124;BME280;66079;47.646;19.130;2023-04-03T05:36:33;100396.66;;;5.47;60.12
77124;BME280;66079;47.646;19.130;2023-04-03T05:39:40;100399.94;;;5.41;59.70
77124;BME280;66079;47.646;19.130;2023-04-03T05:42:44;100386.72;;;5.36;60.17
77124;BME280;66079;47.646;19.130;2023-04-03T05:45:48;100391.72;;;5.38;60.37
77124;BME280;66079;47.646;19.130;2023-04-03T05:48:51;100405.69;;;5.43;60.97
77124;BME280;66079;47.646;19.130;2023-04-03T05:51:56;100411.53;;;5.37;61.86
77124;BME280;66079;47.646;19.130;2023-04-03T05:55:03;100400.88;;;5.40;61.42
77124;BME280;66079;47.646;19.130;2023-04-03T05:58:10;100407.94;;;5.55;61.91
77124;BME280;66079;47.646;19.130;2023-04-03T06:01:14;100411.28;;;5.63;59.77
77124;BME280;66079;47.646;19.130;2023-04-03T06:04:19;100414.13;;;5.68;60.81
77124;BME280;66079;47.646;19.130;2023-04-03T06:07:24;100429.88;;;5.89;59.85
77124;BME280;66079;47.646;19.130;2023-04-03T06:10:30;100419.03;;;5.94;59.75
77124;BME280;66079;47.646;19.130;2023-04-03T06:13:33;100423.75;;;6.13;60.09
77124;BME280;66079;47.646;19.130;2023-04-03T06:16:37;100431.53;;;6.27;58.06
77124;BME280;66079;47.646;19.130;2023-04-03T06:19:42;100430.41;;;6.30;57.62
77124;BME280;66079;47.646;19.130;2023-04-03T06:22:46;100408.50;;;6.26;57.05
77124;BME280;66079;47.646;19.130;2023-04-03T06:25:49;100418.25;;;6.38;55.51
77124;BME280;66079;47.646;19.130;2023-04-03T06:28:52;100430.25;;;6.68;56.92
77124;BME280;66079;47.646;19.130;2023-04-03T06:31:54;100428.97;;;6.87;55.26
77124;BME280;66079;47.646;19.130;2023-04-03T06:34:58;100413.56;;;6.94;54.59
77124;BME280;66079;47.646;19.130;2023-04-03T06:38:01;100418.66;;;7.16;54.35
77124;BME280;66079;47.646;19.130;2023-04-03T06:41:04;100425.00;;;7.43;53.43
77124;BME280;66079;47.646;19.130;2023-04-03T06:44:07;100424.78;;;7.59;52.25
77124;BME280;66079;47.646;19.130;2023-04-03T06:47:14;100425.69;;;7.66;51.76
77124;BME280;66079;47.646;19.130;2023-04-03T06:50:17;100429.31;;;7.86;51.28
77124;BME280;66079;47.646;19.130;2023-04-03T06:53:20;100443.59;;;8.03;51.03
77124;BME280;66079;47.646;19.130;2023-04-03T06:56:23;100431.53;;;8.10;50.97
77124;BME280;66079;47.646;19.130;2023-04-03T06:59:26;100427.59;;;8.29;50.85
77124;BME280;66079;47.646;19.130;2023-04-03T07:02:29;100430.44;;;8.34;49.18
77124;BME280;66079;47.646;19.130;2023-04-03T07:05:33;100452.00;;;8.62;49.08
77124;BME280;66079;47.646;19.130;2023-04-03T07:08:35;100446.50;;;8.71;48.37
77124;BME280;66079;47.646;19.130;2023-04-03T07:11:38;100448.97;;;8.79;47.90
77124;BME280;66079;47.646;19.130;2023-04-03T07:14:40;100461.28;;;8.77;47.84
77124;BME280;66079;47.646;19.130;2023-04-03T07:17:43;100459.75;;;9.10;47.14
77124;BME280;66079;47.646;19.130;2023-04-03T07:20:46;100450.69;;;9.27;46.39
77124;BME280;66079;47.646;19.130;2023-04-03T07:23:49;100458.19;;;9.16;46.47
77124;BME280;66079;47.646;19.130;2023-04-03T07:26:52;100458.88;;;9.31;46.52
77124;BME280;66079;47.646;19.130;2023-04-03T07:29:55;100470.75;;;9.47;46.35
77124;BME280;66079;47.646;19.130;2023-04-03T07:32:58;100458.84;;;9.59;45.73
77124;BME280;66079;47.646;19.130;2023-04-03T07:36:01;100471.75;;;9.93;45.52
77124;BME280;66079;47.646;19.130;2023-04-03T07:39:04;100462.56;;;9.97;44.58
77124;BME280;66079;47.646;19.130;2023-04-03T07:42:09;100481.16;;;10.00;44.05
77124;BME280;66079;47.646;19.130;2023-04-03T07:45:12;100465.56;;;9.94;44.63
77124;BME280;66079;47.646;19.130;2023-04-03T07:48:16;100473.78;;;9.97;44.07
77124;BME280;66079;47.646;19.130;2023-04-03T07:51:19;100469.50;;;10.30;44.84
77124;BME280;66079;47.646;19.130;2023-04-03T07:54:22;100458.75;;;10.66;43.70
77124;BME280;66079;47.646;19.130;2023-04-03T07:57:24;100466.94;;;10.69;42.31
77124;BME280;66079;47.646;19.130;2023-04-03T08:00:27;100452.56;;;10.60;42.77
77124;BME280;66079;47.646;19.130;2023-04-03T08:03:30;100473.56;;;10.65;42.84
77124;BME280;66079;47.646;19.130;2023-04-03T08:06:33;100462.75;;;10.75;42.57
77124;BME280;66079;47.646;19.130;2023-04-03T08:09:47;100466.16;;;10.69;41.93
77124;BME280;66079;47.646;19.130;2023-04-03T08:12:51;100480.75;;;10.70;42.42
77124;BME280;66079;47.646;19.130;2023-04-03T08:15:54;100488.13;;;10.47;42.89
77124;BME280;66079;47.646;19.130;2023-04-03T08:18:58;100481.94;;;10.74;42.09
77124;BME280;66079;47.646;19.130;2023-04-03T08:22:01;100489.16;;;10.59;42.35
77124;BME280;66079;47.646;19.130;2023-04-03T08:25:05;100472.94;;;10.50;42.96
77124;BME280;66079;47.646;19.130;2023-04-03T08:28:09;100470.75;;;10.73;42.20
77124;BME280;66079;47.646;19.130;2023-04-03T08:31:14;100487.16;;;10.87;43.33
77124;BME280;66079;47.646;19.130;2023-04-03T08:34:18;100481.16;;;11.19;42.06
77124;BME280;66079;47.646;19.130;2023-04-03T08:37:21;100468.75;;;11.02;41.47
77124;BME280;66079;47.646;19.130;2023-04-03T08:40:24;100493.16;;;10.88;42.23
77124;BME280;66079;47.646;19.130;2023-04-03T08:50:20;100466.53;;;11.25;41.35
77124;BME280;66079;47.646;19.130;2023-04-03T08:53:28;100478.84;;;12.19;39.41
77124;BME280;66079;47.646;19.130;2023-04-03T08:56:33;100458.44;;;12.10;39.90
77124;BME280;66079;47.646;19.130;2023-04-03T08:59:38;100470.28;;;12.92;39.24
77124;BME280;66079;47.646;19.130;2023-04-03T09:02:53;100464.28;;;12.67;37.72
77124;BME280;66079;47.646;19.130;2023-04-03T09:09:39;100476.47;;;11.54;38.06
77124;BME280;66079;47.646;19.130;2023-04-03T09:12:59;100470.25;;;11.55;38.04
77124;BME280;66079;47.646;19.130;2023-04-03T09:16:20;100469.84;;;11.51;37.72
77124;BME280;66079;47.646;19.130;2023-04-03T09:19:35;100481.00;;;12.22;38.12
77124;BME280;66079;47.646;19.130;2023-04-03T09:22:43;100454.38;;;13.00;37.07
77124;BME280;66079;47.646;19.130;2023-04-03T09:26:00;100486.03;;;12.79;35.56
77124;BME280;66079;47.646;19.130;2023-04-03T09:29:07;100475.69;;;12.42;36.84
77124;BME280;66079;47.646;19.130;2023-04-03T09:32:34;100473.09;;;12.66;36.55
77124;BME280;66079;47.646;19.130;2023-04-03T09:35:40;100494.94;;;12.72;36.88
77124;BME280;66079;47.646;19.130;2023-04-03T09:39:07;100478.75;;;12.88;35.77
77124;BME280;66079;47.646;19.130;2023-04-03T09:42:32;100478.88;;;13.24;36.35
77124;BME280;66079;47.646;19.130;2023-04-03T09:45:35;100466.69;;;12.93;35.81
77124;BME280;66079;47.646;19.130;2023-04-03T09:48:38;100479.66;;;13.06;34.43
77124;BME280;66079;47.646;19.130;2023-04-03T09:51:41;100485.63;;;13.31;35.63
77124;BME280;66079;47.646;19.130;2023-04-03T09:54:43;100487.25;;;13.69;34.17
77124;BME280;66079;47.646;19.130;2023-04-03T09:57:46;100490.34;;;13.41;34.40
77124;BME280;66079;47.646;19.130;2023-04-03T10:00:59;100478.88;;;12.75;34.93
77124;BME280;66079;47.646;19.130;2023-04-03T10:07:32;100499.56;;;12.39;35.80
77124;BME280;66079;47.646;19.130;2023-04-03T10:10:35;100483.16;;;12.32;35.77
77124;BME280;66079;47.646;19.130;2023-04-03T10:14:10;100490.19;;;12.31;36.64
77124;BME280;66079;47.646;19.130;2023-04-03T10:17:53;100490.28;;;12.49;36.30
77124;BME280;66079;47.646;19.130;2023-04-03T10:21:10;100491.78;;;12.63;36.39
77124;BME280;66079;47.646;19.130;2023-04-03T10:24:43;100490.00;;;12.33;36.64
77124;BME280;66079;47.646;19.130;2023-04-03T10:27:59;100485.94;;;12.37;36.23
77124;BME280;66079;47.646;19.130;2023-04-03T10:31:22;100490.13;;;12.44;37.20
77124;BME280;66079;47.646;19.130;2023-04-03T10:34:37;100495.06;;;13.32;35.02
77124;BME280;66079;47.646;19.130;2023-04-03T10:37:55;100495.19;;;14.10;33.86
77124;BME280;66079;47.646;19.130;2023-04-03T10:41:12;100481.13;;;13.57;33.30
77124;BME280;66079;47.646;19.130;2023-04-03T10:44:32;100483.22;;;13.30;34.44
77124;BME280;66079;47.646;19.130;2023-04-03T10:57:41;100483.97;;;12.63;35.65
77124;BME280;66079;47.646;19.130;2023-04-03T11:00:49;100474.50;;;12.69;35.85
77124;BME280;66079;47.646;19.130;2023-04-03T11:03:57;100485.16;;;12.67;35.49
77124;BME280;66079;47.646;19.130;2023-04-03T11:07:10;100462.16;;;12.58;34.81
77124;BME280;66079;47.646;19.130;2023-04-03T11:10:37;100480.66;;;12.74;34.71
77124;BME280;66079;47.646;19.130;2023-04-03T11:14:02;100486.09;;;12.97;34.83
77124;BME280;66079;47.646;19.130;2023-04-03T11:17:11;100475.66;;;12.73;34.59
77124;BME280;66079;47.646;19.130;2023-04-03T11:20:19;100470.34;;;12.61;34.77
77124;BME280;66079;47.646;19.130;2023-04-03T11:23:32;100472.13;;;12.67;35.21
77124;BME280;66079;47.646;19.130;2023-04-03T11:26:51;100477.75;;;12.64;34.77
77124;BME280;66079;47.646;19.130;2023-04-03T11:29:55;100464.56;;;12.59;34.85
77124;BME280;66079;47.646;19.130;2023-04-03T11:36:28;100469.25;;;12.75;34.56
77124;BME280;66079;47.646;19.130;2023-04-03T11:39:36;100457.50;;;12.84;34.53
77124;BME280;66079;47.646;19.130;2023-04-03T11:42:42;100445.72;;;13.06;33.91
77124;BME280;66079;47.646;19.130;2023-04-03T11:46:06;100453.91;;;13.10;34.27
77124;BME280;66079;47.646;19.130;2023-04-03T11:55:58;100452.66;;;13.85;33.27
77124;BME280;66079;47.646;19.130;2023-04-03T12:02:36;100441.81;;;13.33;32.91
77124;BME280;66079;47.646;19.130;2023-04-03T12:09:30;100451.56;;;13.45;33.10
77124;BME280;66079;47.646;19.130;2023-04-03T12:12:37;100450.31;;;13.47;33.10
77124;BME280;66079;47.646;19.130;2023-04-03T12:25:40;100443.25;;;13.11;33.16
77124;BME280;66079;47.646;19.130;2023-04-03T12:28:41;100429.63;;;13.09;32.87
77124;BME280;66079;47.646;19.130;2023-04-03T12:45:50;100416.22;;;13.24;32.99
77124;BME280;66079;47.646;19.130;2023-04-03T12:48:57;100428.38;;;13.12;33.96
77124;BME280;66079;47.646;19.130;2023-04-03T12:52:00;100416.56;;;13.09;32.86
77124;BME280;66079;47.646;19.130;2023-04-03T12:55:14;100415.00;;;13.26;32.79
77124;BME280;66079;47.646;19.130;2023-04-03T12:58:27;100429.34;;;13.17;32.42
77124;BME280;66079;47.646;19.130;2023-04-03T13:01:30;100430.59;;;13.33;33.44
77124;BME280;66079;47.646;19.130;2023-04-03T13:04:33;100406.66;;;13.18;32.93
77124;BME280;66079;47.646;19.130;2023-04-03T13:07:37;100404.50;;;12.90;33.31
77124;BME280;66079;47.646;19.130;2023-04-03T13:11:03;100396.16;;;12.82;33.35
77124;BME280;66079;47.646;19.130;2023-04-03T13:14:16;100413.69;;;12.93;33.38
77124;BME280;66079;47.646;19.130;2023-04-03T13:17:19;100404.69;;;13.13;33.71
77124;BME280;66079;47.646;19.130;2023-04-03T13:20:28;100409.28;;;12.93;33.83
77124;BME280;66079;47.646;19.130;2023-04-03T13:23:34;100411.00;;;13.24;32.10
77124;BME280;66079;47.646;19.130;2023-04-03T13:26:38;100398.97;;;13.23;33.43
77124;BME280;66079;47.646;19.130;2023-04-03T13:29:41;100383.50;;;13.58;32.36
77124;BME280;66079;47.646;19.130;2023-04-03T13:32:44;100393.56;;;15.91;28.84
77124;BME280;66079;47.646;19.130;2023-04-03T13:35:56;100381.19;;;16.65;27.55
77124;BME280;66079;47.646;19.130;2023-04-03T13:39:29;100394.34;;;22.91;20.36
77124;BME280;66079;47.646;19.130;2023-04-03T13:42:34;100392.66;;;23.00;19.39
77124;BME280;66079;47.646;19.130;2023-04-03T13:45:39;100388.31;;;24.58;17.61
77124;BME280;66079;47.646;19.130;2023-04-03T13:48:47;100383.63;;;24.82;17.92
77124;BME280;66079;47.646;19.130;2023-04-03T13:51:50;100393.78;;;20.56;21.04
77124;BME280;66079;47.646;19.130;2023-04-03T13:55:30;100369.66;;;18.53;23.75
77124;BME280;66079;47.646;19.130;2023-04-03T13:58:36;100371.97;;;17.65;24.65
77124;BME280;66079;47.646;19.130;2023-04-03T14:01:50;100374.38;;;17.23;25.24
77124;BME280;66079;47.646;19.130;2023-04-03T14:04:55;100364.28;;;16.94;27.56
77124;BME280;66079;47.646;19.130;2023-04-03T14:08:00;100364.47;;;16.71;27.55
77124;BME280;66079;47.646;19.130;2023-04-03T14:11:04;100362.59;;;16.50;27.53
77124;BME280;66079;47.646;19.130;2023-04-03T14:14:14;100355.38;;;15.95;26.86
77124;BME280;66079;47.646;19.130;2023-04-03T14:17:20;100349.41;;;15.55;28.06
77124;BME280;66079;47.646;19.130;2023-04-03T14:20:27;100353.38;;;15.18;29.10
77124;BME280;66079;47.646;19.130;2023-04-03T14:23:30;100349.97;;;15.06;29.55
77124;BME280;66079;47.646;19.130;2023-04-03T14:26:33;100356.72;;;14.56;30.59
77124;BME280;66079;47.646;19.130;2023-04-03T14:29:36;100361.94;;;14.33;30.76
77124;BME280;66079;47.646;19.130;2023-04-03T14:32:38;100357.47;;;14.22;31.91
77124;BME280;66079;47.646;19.130;2023-04-03T14:35:42;100358.41;;;14.39;31.16
77124;BME280;66079;47.646;19.130;2023-04-03T14:38:45;100342.31;;;14.12;31.62
77124;BME280;66079;47.646;19.130;2023-04-03T14:41:48;100357.97;;;14.65;31.41
77124;BME280;66079;47.646;19.130;2023-04-03T14:44:51;100344.16;;;14.12;31.71
77124;BME280;66079;47.646;19.130;2023-04-03T14:47:55;100358.41;;;14.39;31.52
77124;BME280;66079;47.646;19.130;2023-04-03T14:50:59;100346.31;;;14.15;32.08
77124;BME280;66079;47.646;19.130;2023-04-03T14:54:18;100363.66;;;13.68;33.42
77124;BME280;66079;47.646;19.130;2023-04-03T14:57:25;100365.09;;;13.53;34.44
77124;BME280;66079;47.646;19.130;2023-04-03T15:00:29;100359.97;;;13.28;34.73
77124;BME280;66079;47.646;19.130;2023-04-03T15:03:32;100356.09;;;13.12;35.22
77124;BME280;66079;47.646;19.130;2023-04-03T15:06:35;100372.91;;;12.98;36.25
77124;BME280;66079;47.646;19.130;2023-04-03T15:09:38;100351.72;;;12.70;35.76
77124;BME280;66079;47.646;19.130;2023-04-03T15:12:43;100358.13;;;12.68;36.56
77124;BME280;66079;47.646;19.130;2023-04-03T15:15:46;100373.38;;;12.71;36.69
77124;BME280;66079;47.646;19.130;2023-04-03T15:18:49;100353.53;;;12.45;36.38
77124;BME280;66079;47.646;19.130;2023-04-03T15:21:51;100366.56;;;12.45;36.71
77124;BME280;66079;47.646;19.130;2023-04-03T15:24:54;100352.06;;;12.31;37.46
77124;BME280;66079;47.646;19.130;2023-04-03T15:27:57;100347.03;;;12.05;38.50
77124;BME280;66079;47.646;19.130;2023-04-03T15:31:00;100367.28;;;12.03;37.47
77124;BME280;66079;47.646;19.130;2023-04-03T15:34:03;100366.00;;;11.81;36.75
77124;BME280;66079;47.646;19.130;2023-04-03T15:37:05;100375.53;;;11.56;35.64
77124;BME280;66079;47.646;19.130;2023-04-03T15:40:09;100367.47;;;11.20;35.12
77124;BME280;66079;47.646;19.130;2023-04-03T15:43:12;100374.31;;;11.01;35.95
77124;BME280;66079;47.646;19.130;2023-04-03T15:46:14;100369.38;;;10.80;35.79
77124;BME280;66079;47.646;19.130;2023-04-03T15:49:19;100372.97;;;10.59;35.48
77124;BME280;66079;47.646;19.130;2023-04-03T15:52:22;100378.97;;;10.47;36.66
77124;BME280;66079;47.646;19.130;2023-04-03T15:55:26;100376.78;;;10.24;35.82
77124;BME280;66079;47.646;19.130;2023-04-03T15:58:28;100381.97;;;10.18;37.27
77124;BME280;66079;47.646;19.130;2023-04-03T16:01:32;100376.31;;;10.01;37.44
77124;BME280;66079;47.646;19.130;2023-04-03T16:04:35;100398.28;;;9.99;37.46
77124;BME280;66079;47.646;19.130;2023-04-03T16:07:38;100385.88;;;9.88;38.26
77124;BME280;66079;47.646;19.130;2023-04-03T16:10:41;100390.63;;;9.71;38.47
77124;BME280;66079;47.646;19.130;2023-04-03T16:13:44;100389.03;;;9.70;38.77
77124;BME280;66079;47.646;19.130;2023-04-03T16:16:47;100386.97;;;9.59;38.66
77124;BME280;66079;47.646;19.130;2023-04-03T16:19:49;100394.19;;;9.64;38.78
77124;BME280;66079;47.646;19.130;2023-04-03T16:22:52;100411.53;;;9.57;38.28
77124;BME280;66079;47.646;19.130;2023-04-03T16:25:55;100393.44;;;9.29;38.79
77124;BME280;66079;47.646;19.130;2023-04-03T16:28:58;100403.59;;;9.24;38.47
77124;BME280;66079;47.646;19.130;2023-04-03T16:32:01;100412.69;;;9.13;38.77
77124;BME280;66079;47.646;19.130;2023-04-03T16:35:04;100419.81;;;9.05;38.20
77124;BME280;66079;47.646;19.130;2023-04-03T16:38:07;100425.00;;;9.05;38.94
77124;BME280;66079;47.646;19.130;2023-04-03T16:41:10;100440.50;;;8.98;37.21
77124;BME280;66079;47.646;19.130;2023-04-03T16:44:12;100444.81;;;8.85;37.54
77124;BME280;66079;47.646;19.130;2023-04-03T16:47:16;100444.19;;;8.83;38.00
77124;BME280;66079;47.646;19.130;2023-04-03T16:50:21;100452.91;;;8.75;37.86
77124;BME280;66079;47.646;19.130;2023-04-03T16:53:25;100448.22;;;8.64;38.22
77124;BME280;66079;47.646;19.130;2023-04-03T16:56:27;100460.63;;;8.69;38.00
77124;BME280;66079;47.646;19.130;2023-04-03T16:59:30;100451.38;;;8.60;38.09
77124;BME280;66079;47.646;19.130;2023-04-03T17:02:33;100458.53;;;8.58;38.36
77124;BME280;66079;47.646;19.130;2023-04-03T17:05:36;100468.97;;;8.64;38.39
77124;BME280;66079;47.646;19.130;2023-04-03T17:08:40;100483.28;;;8.60;38.70
77124;BME280;66079;47.646;19.130;2023-04-03T17:11:43;100481.72;;;8.45;39.34
77124;BME280;66079;47.646;19.130;2023-04-03T17:14:50;100495.88;;;8.42;39.79